Time;durP1;ratioP1;P1;durP2;ratioP2;P2;SDS_P1;SDS_P2;PMS_P1;PMS_P2;Temp;Humidity;BMP_temperature;BMP_pressure;BME280_temperature;BME280_humidity;BME280_pressure;Samples;Min_cycle;Max_cycle;Signal;HPM_P1;HPM_P2
2024/01/30 00:02:11;;;;;;;5.72;1.40;;;;;;;;;;5015574;28;20125;-29
2024/01/30 00:04:37;;;;;;;1.20;1.10;;;;;;;;;;5015608;28;20065;-29
2024/01/30 00:07:03;;;;;;;4.15;1.52;;;;;;;;;;5015504;28;20041;-29
2024/01/30 00:09:30;;;;;;;2.90;1.55;;;;;;;;;;5015766;28;20467;-29
2024/01/30 00:11:56;;;;;;;5.47;1.60;;;;;;;;;;5015374;28;20087;-29
2024/01/30 00:14:22;;;;;;;1.63;1.10;;;;;;;;;;5015470;28;20353;-30
2024/01/30 00:16:49;;;;;;;2.97;1.67;;;;;;;;;;5015309;28;20119;-29
2024/01/30 00:19:15;;;;;;;1.10;1.00;;;;;;;;;;5015280;28;20033;-28
2024/01/30 00:21:41;;;;;;;1.42;0.95;;;;;;;;;;4997930;28;20022;-29
2024/01/30 00:24:07;;;;;;;2.47;1.35;;;;;;;;;;5015413;28;20057;-29
2024/01/30 00:26:33;;;;;;;2.20;1.20;;;;;;;;;;4997921;28;20046;-30
2024/01/30 00:29:00;;;;;;;1.15;1.02;;;;;;;;;;5015143;28;20030;-29
2024/01/30 00:31:26;;;;;;;2.08;1.00;;;;;;;;;;5015169;28;20049;-29
2024/01/30 00:33:52;;;;;;;2.03;0.85;;;;;;;;;;5015331;28;20054;-29
2024/01/30 00:36:18;;;;;;;2.10;1.30;;;;;;;;;;4998547;28;20034;-29
2024/01/30 00:38:44;;;;;;;1.02;0.93;;;;;;;;;;4997652;28;20033;-29
2024/01/30 00:41:10;;;;;;;6.00;1.38;;;;;;;;;;5015018;28;20108;-29
2024/01/30 00:43:37;;;;;;;2.45;1.33;;;;;;;;;;5014919;28;20101;-29
2024/01/30 00:46:03;;;;;;;3.03;1.20;;;;;;;;;;5014982;28;20105;-29
2024/01/30 00:48:29;;;;;;;1.83;1.20;;;;;;;;;;5015252;28;20388;-28
2024/01/30 00:50:55;;;;;;;3.85;2.13;;;;;;;;;;5014876;28;20104;-29
2024/01/30 00:53:22;;;;;;;1.58;1.40;;;;;;;;;;5014854;28;20054;-30
2024/01/30 00:55:48;;;;;;;1.77;1.52;;;;;;;;;;4997511;28;20034;-29
2024/01/30 00:58:14;;;;;;;3.15;1.27;;;;;;;;;;5014685;28;20104;-29
2024/01/30 01:00:40;;;;;;;2.15;0.95;;;;;;;;;;5015034;28;20096;-29
2024/01/30 01:03:06;;;;;;;1.38;0.88;;;;;;;;;;5014627;28;20038;-29
2024/01/30 01:05:32;;;;;;;2.22;1.38;;;;;;;;;;5014991;28;20129;-29
2024/01/30 01:07:58;;;;;;;2.08;0.98;;;;;;;;;;5014659;28;20026;-28
2024/01/30 01:10:24;;;;;;;1.23;0.93;;;;;;;;;;5014956;28;20026;-28
2024/01/30 01:12:50;;;;;;;3.08;1.35;;;;;;;;;;5014565;28;20461;-29
2024/01/30 01:15:17;;;;;;;1.63;0.90;;;;;;;;;;5014596;28;20034;-29
2024/01/30 01:17:43;;;;;;;2.72;1.00;;;;;;;;;;4997385;28;20104;-29
2024/01/30 01:20:10;;;;;;;2.28;1.38;;;;;;;;;;5014769;28;20480;-29
2024/01/30 01:22:38;;;;;;;1.90;0.90;;;;;;;;;;5014755;28;20069;-29
2024/01/30 01:25:08;;;;;;;1.85;0.93;;;;;;;;;;4997231;28;20025;-29
2024/01/30 01:27:38;;;;;;;2.78;1.10;;;;;;;;;;5014566;28;20416;-29
2024/01/30 01:30:05;;;;;;;1.23;1.00;;;;;;;;;;5014763;28;20029;-29
2024/01/30 01:32:31;;;;;;;1.15;1.05;;;;;;;;;;4997186;28;20030;-29
2024/01/30 01:34:58;;;;;;;2.78;1.15;;;;;;;;;;5014483;28;20057;-29
2024/01/30 01:37:26;;;;;;;1.50;1.17;;;;;;;;;;5014471;28;20056;-28
2024/01/30 01:39:52;;;;;;;1.15;1.00;;;;;;;;;;5014375;28;20022;-29
2024/01/30 01:42:18;;;;;;;3.83;1.27;;;;;;;;;;5014317;28;20018;-29
2024/01/30 01:44:45;;;;;;;1.17;0.82;;;;;;;;;;5014586;28;20037;-29
2024/01/30 01:47:11;;;;;;;1.55;1.00;;;;;;;;;;5014568;28;20331;-30
2024/01/30 01:49:38;;;;;;;1.90;1.20;;;;;;;;;;5014390;28;20026;-30
2024/01/30 01:52:04;;;;;;;1.65;1.30;;;;;;;;;;4996957;28;20162;-28
2024/01/30 01:54:30;;;;;;;1.85;1.00;;;;;;;;;;5014315;28;20021;-29
2024/01/30 01:56:57;;;;;;;1.70;0.90;;;;;;;;;;5014183;28;20026;-29
2024/01/30 01:59:24;;;;;;;2.15;0.98;;;;;;;;;;5014425;28;20065;-29
2024/01/30 02:01:51;;;;;;;1.33;1.05;;;;;;;;;;4996859;28;20037;-29
2024/01/30 02:04:17;;;;;;;1.73;0.90;;;;;;;;;;5014102;28;20073;-29
2024/01/30 02:06:44;;;;;;;0.73;0.73;;;;;;;;;;5014203;28;20076;-29
2024/01/30 02:09:10;;;;;;;1.30;1.13;;;;;;;;;;5014869;28;20025;-29
2024/01/30 02:11:36;;;;;;;1.20;0.93;;;;;;;;;;5017672;28;20137;-32
2024/01/30 02:14:04;;;;;;;2.42;1.17;;;;;;;;;;5017788;28;20030;-29
2024/01/30 02:16:30;;;;;;;3.92;1.30;;;;;;;;;;5017545;28;20034;-29
2024/01/30 02:18:56;;;;;;;1.10;1.00;;;;;;;;;;5017410;28;20034;-29
2024/01/30 02:21:22;;;;;;;1.70;1.05;;;;;;;;;;5000182;28;20469;-29
2024/01/30 02:23:49;;;;;;;1.48;1.00;;;;;;;;;;5017640;28;20108;-29
2024/01/30 02:26:16;;;;;;;1.10;0.95;;;;;;;;;;5017341;28;20438;-29
2024/01/30 02:28:42;;;;;;;4.72;1.65;;;;;;;;;;5017355;28;20034;-29
2024/01/30 02:31:08;;;;;;;2.17;1.00;;;;;;;;;;5017338;28;20049;-29
2024/01/30 02:33:34;;;;;;;1.95;1.48;;;;;;;;;;5017314;28;20427;-29
2024/01/30 02:36:00;;;;;;;2.55;1.10;;;;;;;;;;5017521;28;20026;-29
2024/01/30 02:38:29;;;;;;;1.95;0.95;;;;;;;;;;5017417;28;20049;-29
2024/01/30 02:40:56;;;;;;;2.17;1.40;;;;;;;;;;5017090;28;20025;-29
2024/01/30 02:43:22;;;;;;;1.25;1.08;;;;;;;;;;5016979;28;20053;-29
2024/01/30 02:45:48;;;;;;;1.25;1.15;;;;;;;;;;5017040;28;20053;-30
2024/01/30 02:48:14;;;;;;;2.03;1.20;;;;;;;;;;5017015;28;20052;-33
2024/01/30 02:50:40;;;;;;;1.65;1.27;;;;;;;;;;5017249;28;20389;-29
2024/01/30 02:53:07;;;;;;;2.30;1.33;;;;;;;;;;5016960;28;20028;-29
2024/01/30 02:55:33;;;;;;;0.98;0.82;;;;;;;;;;5016879;28;20029;-29
2024/01/30 02:57:59;;;;;;;1.77;1.35;;;;;;;;;;5016836;28;20025;-29
2024/01/30 03:00:26;;;;;;;1.63;1.45;;;;;;;;;;5016731;28;20034;-29
2024/01/30 03:02:52;;;;;;;1.95;0.98;;;;;;;;;;5016642;28;20100;-29
2024/01/30 03:05:18;;;;;;;1.63;1.10;;;;;;;;;;5016658;28;20034;-27
2024/01/30 03:07:44;;;;;;;2.75;1.45;;;;;;;;;;5016620;28;20099;-26
2024/01/30 03:10:10;;;;;;;1.45;1.13;;;;;;;;;;4999324;28;20125;-27
2024/01/30 03:12:36;;;;;;;2.33;1.10;;;;;;;;;;5016447;28;20026;-26
2024/01/30 03:15:02;;;;;;;3.38;1.25;;;;;;;;;;5016721;28;20357;-27
2024/01/30 03:17:28;;;;;;;5.95;2.10;;;;;;;;;;5016466;28;20026;-27
2024/01/30 03:19:54;;;;;;;1.15;1.00;;;;;;;;;;5016066;28;20033;-27
2024/01/30 03:22:21;;;;;;;1.30;1.20;;;;;;;;;;5015475;28;20022;-26
2024/01/30 03:24:47;;;;;;;3.45;1.00;;;;;;;;;;5016288;28;20018;-27
2024/01/30 03:27:13;;;;;;;1.85;1.33;;;;;;;;;;5016234;28;20412;-27
2024/01/30 03:29:39;;;;;;;2.25;1.10;;;;;;;;;;5016151;28;20441;-27
2024/01/30 03:32:05;;;;;;;2.97;1.27;;;;;;;;;;5016085;28;20040;-27
2024/01/30 03:34:31;;;;;;;1.63;1.10;;;;;;;;;;5016164;28;20026;-26
2024/01/30 03:36:57;;;;;;;1.00;0.90;;;;;;;;;;5016077;28;20022;-27
2024/01/30 03:39:24;;;;;;;1.10;0.93;;;;;;;;;;5016203;28;20105;-26
2024/01/30 03:41:50;;;;;;;1.27;1.17;;;;;;;;;;5016159;28;20099;-26
2024/01/30 03:44:16;;;;;;;2.42;0.90;;;;;;;;;;5016262;28;20022;-26
2024/01/30 03:46:42;;;;;;;1.77;1.33;;;;;;;;;;5016158;28;20030;-27
2024/01/30 03:49:10;;;;;;;1.10;1.00;;;;;;;;;;5016049;28;20026;-27
2024/01/30 03:51:36;;;;;;;1.95;1.30;;;;;;;;;;5016098;28;20103;-27
2024/01/30 03:54:02;;;;;;;2.30;1.25;;;;;;;;;;4998406;28;20022;-27
2024/01/30 03:56:28;;;;;;;2.08;1.38;;;;;;;;;;5015762;28;20026;-27
2024/01/30 03:58:55;;;;;;;1.33;1.20;;;;;;;;;;5015848;28;20450;-27
2024/01/30 04:01:22;;;;;;;1.23;1.13;;;;;;;;;;4998316;28;20113;-26
2024/01/30 04:03:48;;;;;;;1.30;1.20;;;;;;;;;;5015329;28;20065;-26
2024/01/30 04:06:14;;;;;;;2.88;1.17;;;;;;;;;;5015549;28;20440;-26
2024/01/30 04:08:40;;;;;;;1.60;1.05;;;;;;;;;;5015760;28;20105;-27
2024/01/30 04:11:06;;;;;;;0.88;0.85;;;;;;;;;;5015766;28;20108;-27
2024/01/30 04:13:35;;;;;;;1.38;1.25;;;;;;;;;;5015683;28;20033;-27
2024/01/30 04:16:02;;;;;;;1.35;1.25;;;;;;;;;;5015338;28;20030;-27
2024/01/30 04:18:28;;;;;;;1.50;1.40;;;;;;;;;;5015325;28;20049;-27
2024/01/30 04:20:55;;;;;;;1.70;1.27;;;;;;;;;;5015272;28;20029;-26
2024/01/30 04:23:21;;;;;;;1.65;1.10;;;;;;;;;;5015703;28;20026;-26
2024/01/30 04:25:47;;;;;;;1.63;1.13;;;;;;;;;;4997878;28;20510;-27
2024/01/30 04:28:13;;;;;;;1.10;1.00;;;;;;;;;;5015211;28;20131;-27
2024/01/30 04:30:40;;;;;;;1.52;0.90;;;;;;;;;;5015184;28;20025;-27
2024/01/30 04:33:06;;;;;;;1.20;1.00;;;;;;;;;;5014726;28;20033;-27
2024/01/30 04:35:32;;;;;;;2.67;1.25;;;;;;;;;;5015163;28;20364;-27
2024/01/30 04:37:58;;;;;;;1.20;1.10;;;;;;;;;;5015076;28;20030;-27
2024/01/30 04:40:24;;;;;;;2.20;1.00;;;;;;;;;;5014958;28;20030;-27
2024/01/30 04:42:50;;;;;;;1.48;0.98;;;;;;;;;;4997631;28;20088;-27
2024/01/30 04:45:16;;;;;;;2.80;1.10;;;;;;;;;;4997705;28;20030;-27
2024/01/30 04:47:43;;;;;;;1.50;1.33;;;;;;;;;;5014910;28;20110;-26
2024/01/30 04:50:09;;;;;;;1.73;1.02;;;;;;;;;;5014826;28;20372;-26
2024/01/30 04:52:35;;;;;;;1.30;1.20;;;;;;;;;;5014755;28;20049;-27
2024/01/30 04:55:01;;;;;;;1.45;1.20;;;;;;;;;;5014841;28;20017;-27
2024/01/30 04:57:28;;;;;;;1.30;1.02;;;;;;;;;;5014818;28;20078;-27
2024/01/30 04:59:54;;;;;;;1.45;1.30;;;;;;;;;;5014754;28;20038;-27
2024/01/30 05:02:20;;;;;;;2.15;1.23;;;;;;;;;;5014722;28;20021;-28
2024/01/30 05:04:46;;;;;;;1.85;1.05;;;;;;;;;;4997456;28;20175;-28
2024/01/30 05:07:12;;;;;;;1.15;1.00;;;;;;;;;;5014992;28;20022;-29
2024/01/30 05:09:40;;;;;;;1.92;1.10;;;;;;;;;;5015329;28;20057;-29
2024/01/30 05:12:06;;;;;;;2.08;1.25;;;;;;;;;;4997103;28;20030;-30
2024/01/30 05:14:32;;;;;;;1.90;0.90;;;;;;;;;;4997196;28;20120;-29
2024/01/30 05:16:58;;;;;;;2.15;1.30;;;;;;;;;;5014836;28;20117;-29
2024/01/30 05:19:24;;;;;;;1.05;0.95;;;;;;;;;;5014368;28;20030;-29
2024/01/30 05:21:51;;;;;;;2.30;1.45;;;;;;;;;;5014759;28;20022;-30
2024/01/30 05:24:17;;;;;;;3.20;1.75;;;;;;;;;;5014357;28;20022;-29
2024/01/30 05:26:43;;;;;;;1.88;1.48;;;;;;;;;;4997052;28;20083;-32
2024/01/30 05:29:09;;;;;;;3.40;1.35;;;;;;;;;;4996887;28;20036;-29
2024/01/30 05:31:35;;;;;;;1.58;1.48;;;;;;;;;;5014623;28;20030;-30
2024/01/30 05:34:02;;;;;;;2.08;1.33;;;;;;;;;;5014243;28;20038;-29
2024/01/30 05:36:28;;;;;;;3.30;1.52;;;;;;;;;;5014311;28;20087;-30
2024/01/30 05:38:54;;;;;;;7.70;1.90;;;;;;;;;;4997064;28;20026;-29
2024/01/30 05:41:23;;;;;;;1.77;1.20;;;;;;;;;;5014282;28;20152;-30
2024/01/30 05:43:49;;;;;;;4.35;1.45;;;;;;;;;;5014636;28;20388;-29
2024/01/30 05:46:16;;;;;;;6.75;1.67;;;;;;;;;;5017928;28;20441;-29
2024/01/30 05:48:42;;;;;;;10.45;1.55;;;;;;;;;;5018056;28;20092;-29
2024/01/30 05:51:08;;;;;;;7.70;2.85;;;;;;;;;;5018275;28;20105;-29
2024/01/30 05:53:35;;;;;;;1.80;1.27;;;;;;;;;;5000848;28;20041;-30
2024/01/30 05:56:04;;;;;;;1.65;1.23;;;;;;;;;;5017827;28;20517;-29
2024/01/30 05:58:33;;;;;;;1.90;1.30;;;;;;;;;;5000735;28;20371;-29
2024/01/30 06:01:00;;;;;;;1.30;1.20;;;;;;;;;;5017776;28;20025;-29
2024/01/30 06:03:26;;;;;;;2.97;1.42;;;;;;;;;;5017322;28;20038;-29
2024/01/30 06:05:52;;;;;;;2.22;1.38;;;;;;;;;;5017782;28;20093;-30
2024/01/30 06:08:18;;;;;;;3.70;1.50;;;;;;;;;;5017495;28;20330;-29
2024/01/30 06:10:44;;;;;;;2.00;0.90;;;;;;;;;;5017730;28;20089;-29
2024/01/30 06:13:10;;;;;;;4.18;1.70;;;;;;;;;;5017464;28;20026;-29
2024/01/30 06:15:37;;;;;;;3.88;1.20;;;;;;;;;;5017657;28;20434;-29
2024/01/30 06:18:03;;;;;;;1.30;1.20;;;;;;;;;;5017361;28;20109;-29
2024/01/30 06:20:29;;;;;;;1.65;1.38;;;;;;;;;;5017216;28;20124;-29
2024/01/30 06:22:55;;;;;;;5.03;1.33;;;;;;;;;;4999891;28;20440;-29
2024/01/30 06:25:21;;;;;;;2.08;0.98;;;;;;;;;;5017254;28;20033;-30
2024/01/30 06:27:47;;;;;;;2.35;1.30;;;;;;;;;;5017193;28;20033;-29
2024/01/30 06:30:14;;;;;;;1.67;1.20;;;;;;;;;;4999937;28;20057;-30
2024/01/30 06:32:40;;;;;;;5.90;1.55;;;;;;;;;;5000102;28;20021;-29
2024/01/30 06:35:06;;;;;;;2.00;1.58;;;;;;;;;;5017024;28;20461;-30
2024/01/30 06:37:32;;;;;;;3.83;1.60;;;;;;;;;;5017261;28;20046;-29
2024/01/30 06:39:59;;;;;;;2.60;1.30;;;;;;;;;;5017093;28;20048;-29
2024/01/30 06:42:25;;;;;;;4.03;1.52;;;;;;;;;;5016939;28;20026;-29
2024/01/30 06:44:51;;;;;;;2.10;1.30;;;;;;;;;;5016856;28;20018;-29
2024/01/30 06:47:17;;;;;;;2.17;1.27;;;;;;;;;;5016827;28;20049;-30
2024/01/30 06:49:43;;;;;;;2.55;1.45;;;;;;;;;;5016986;28;20112;-29
2024/01/30 06:52:10;;;;;;;1.73;1.20;;;;;;;;;;5016802;28;20084;-30
2024/01/30 06:54:36;;;;;;;4.97;1.52;;;;;;;;;;5016461;28;20033;-29
2024/01/30 06:57:02;;;;;;;3.50;1.10;;;;;;;;;;5016832;28;20445;-29
2024/01/30 06:59:29;;;;;;;1.65;1.25;;;;;;;;;;5016545;28;20076;-29
2024/01/30 07:01:55;;;;;;;5.30;1.33;;;;;;;;;;5016828;28;20373;-29
2024/01/30 07:04:21;;;;;;;2.63;1.30;;;;;;;;;;5016331;28;20053;-29
2024/01/30 07:06:47;;;;;;;1.83;1.02;;;;;;;;;;5016445;28;20365;-29
2024/01/30 07:09:13;;;;;;;1.13;1.10;;;;;;;;;;5016788;28;20357;-30
2024/01/30 07:11:39;;;;;;;2.22;1.10;;;;;;;;;;5016449;28;20101;-29
2024/01/30 07:14:06;;;;;;;1.73;1.27;;;;;;;;;;5016294;28;20022;-28
2024/01/30 07:16:32;;;;;;;6.50;1.65;;;;;;;;;;5016540;28;20061;-29
2024/01/30 07:18:58;;;;;;;3.28;1.40;;;;;;;;;;4998896;28;20057;-29
2024/01/30 07:21:28;;;;;;;1.63;1.38;;;;;;;;;;5016170;28;20457;-29
2024/01/30 07:23:57;;;;;;;1.63;1.48;;;;;;;;;;4998733;28;20036;-29
2024/01/30 07:26:23;;;;;;;3.45;1.52;;;;;;;;;;5016061;28;20022;-29
2024/01/30 07:28:50;;;;;;;2.45;1.30;;;;;;;;;;5015984;28;20041;-29
2024/01/30 07:31:16;;;;;;;4.88;1.67;;;;;;;;;;5015953;28;20426;-29
2024/01/30 07:33:42;;;;;;;4.45;1.52;;;;;;;;;;5016149;28;20291;-29
2024/01/30 07:36:08;;;;;;;1.58;1.10;;;;;;;;;;5015910;28;20026;-30
2024/01/30 07:38:35;;;;;;;1.80;1.40;;;;;;;;;;5015738;28;20157;-28
2024/01/30 07:41:01;;;;;;;1.45;1.35;;;;;;;;;;5015790;28;20037;-29
2024/01/30 07:43:27;;;;;;;2.40;1.30;;;;;;;;;;5015670;28;20416;-29
2024/01/30 07:45:53;;;;;;;3.38;1.77;;;;;;;;;;5015886;28;20026;-29
2024/01/30 07:48:19;;;;;;;1.40;1.20;;;;;;;;;;5015896;28;20018;-30
2024/01/30 07:50:45;;;;;;;1.70;1.05;;;;;;;;;;5015814;28;20030;-29
2024/01/30 07:53:11;;;;;;;7.85;1.95;;;;;;;;;;5015985;28;20423;-30
2024/01/30 07:55:38;;;;;;;1.92;1.17;;;;;;;;;;5015577;28;20144;-30
2024/01/30 07:58:05;;;;;;;3.95;1.60;;;;;;;;;;5015766;28;20448;-29
2024/01/30 08:00:31;;;;;;;2.38;1.63;;;;;;;;;;5015691;28;20357;-29
2024/01/30 08:02:58;;;;;;;5.97;1.50;;;;;;;;;;5015404;28;20184;-29
2024/01/30 08:05:24;;;;;;;6.20;1.60;;;;;;;;;;4998029;28;20036;-29
2024/01/30 08:07:51;;;;;;;1.75;1.30;;;;;;;;;;5015008;28;20028;-30
2024/01/30 08:10:20;;;;;;;2.80;1.38;;;;;;;;;;4997941;28;20037;-30
2024/01/30 08:12:46;;;;;;;4.43;1.30;;;;;;;;;;5015158;28;20109;-29
2024/01/30 08:15:13;;;;;;;4.85;1.60;;;;;;;;;;5015298;28;20104;-29
2024/01/30 08:17:39;;;;;;;2.40;1.70;;;;;;;;;;5015212;28;20022;-30
2024/01/30 08:20:06;;;;;;;6.30;1.75;;;;;;;;;;5015329;28;20044;-30
2024/01/30 08:22:32;;;;;;;6.82;2.67;;;;;;;;;;5015044;28;20032;-29
2024/01/30 08:24:58;;;;;;;2.58;1.30;;;;;;;;;;4997695;28;20021;-29
2024/01/30 08:27:24;;;;;;;3.97;1.48;;;;;;;;;;5014925;28;20036;-29
2024/01/30 08:29:50;;;;;;;7.93;2.13;;;;;;;;;;5014975;28;20361;-29
2024/01/30 08:32:16;;;;;;;1.30;1.20;;;;;;;;;;5015097;28;20032;-29
2024/01/30 08:34:43;;;;;;;4.55;1.38;;;;;;;;;;5014885;28;20025;-30
2024/01/30 08:37:09;;;;;;;1.58;1.25;;;;;;;;;;5014942;28;20030;-29
2024/01/30 08:39:35;;;;;;;1.40;1.05;;;;;;;;;;5014783;28;20026;-30
2024/01/30 08:42:01;;;;;;;3.45;1.45;;;;;;;;;;5014860;28;20021;-30
2024/01/30 08:44:27;;;;;;;2.42;1.30;;;;;;;;;;5014805;28;20014;-29
2024/01/30 08:46:53;;;;;;;2.10;1.33;;;;;;;;;;5014723;28;20022;-29
2024/01/30 08:49:21;;;;;;;3.00;1.30;;;;;;;;;;5014688;28;20060;-29
2024/01/30 08:51:47;;;;;;;3.03;1.02;;;;;;;;;;5014553;28;20414;-29
2024/01/30 08:54:13;;;;;;;2.42;1.50;;;;;;;;;;5014461;28;20113;-29
2024/01/30 08:56:39;;;;;;;3.08;1.50;;;;;;;;;;5014576;28;20038;-29
2024/01/30 08:59:05;;;;;;;2.33;1.50;;;;;;;;;;5014498;28;20073;-30
2024/01/30 09:01:31;;;;;;;1.38;1.02;;;;;;;;;;5014813;28;20022;-30
2024/01/30 09:03:58;;;;;;;3.13;1.42;;;;;;;;;;5014392;28;20054;-29
2024/01/30 09:06:26;;;;;;;4.78;1.85;;;;;;;;;;5014527;28;20018;-29
2024/01/30 09:08:52;;;;;;;2.95;1.80;;;;;;;;;;5014408;28;20095;-28
2024/01/30 09:11:18;;;;;;;5.63;1.50;;;;;;;;;;5014789;28;20056;-29
2024/01/30 09:13:44;;;;;;;1.67;1.35;;;;;;;;;;5014571;28;20030;-29
2024/01/30 09:16:11;;;;;;;1.83;1.30;;;;;;;;;;5014806;28;20438;-29
2024/01/30 09:18:37;;;;;;;6.10;1.90;;;;;;;;;;5016050;28;20034;-30
2024/01/30 09:21:03;;;;;;;5.32;1.60;;;;;;;;;;5018507;28;20376;-29
2024/01/30 09:23:29;;;;;;;11.25;2.92;;;;;;;;;;5000982;28;20021;-29
2024/01/30 09:25:56;;;;;;;3.88;1.50;;;;;;;;;;5018538;28;20041;-27
2024/01/30 09:28:22;;;;;;;5.53;1.70;;;;;;;;;;5018515;28;20098;-27
2024/01/30 09:30:48;;;;;;;6.80;1.20;;;;;;;;;;5001280;28;20097;-29
2024/01/30 09:33:14;;;;;;;4.13;1.40;;;;;;;;;;5018132;28;20021;-29
2024/01/30 09:35:40;;;;;;;9.95;2.20;;;;;;;;;;5018466;28;20084;-30
2024/01/30 09:38:06;;;;;;;5.60;1.70;;;;;;;;;;5018147;28;20034;-29
2024/01/30 09:40:33;;;;;;;1.52;1.33;;;;;;;;;;4984584;28;20160;-29
2024/01/30 09:43:02;;;;;;;6.68;1.38;;;;;;;;;;5017965;28;20026;-29
2024/01/30 09:45:29;;;;;;;3.05;1.33;;;;;;;;;;5017869;28;20025;-29
2024/01/30 09:47:55;;;;;;;2.38;1.50;;;;;;;;;;5017824;28;20045;-30
2024/01/30 09:50:21;;;;;;;2.08;1.60;;;;;;;;;;5018004;28;20026;-29
2024/01/30 09:52:48;;;;;;;2.17;1.60;;;;;;;;;;5017639;28;20112;-29
2024/01/30 09:55:14;;;;;;;7.47;2.08;;;;;;;;;;5017926;28;20123;-30
2024/01/30 09:57:42;;;;;;;1.92;1.45;;;;;;;;;;5017668;28;20026;-29
2024/01/30 10:00:08;;;;;;;5.80;1.63;;;;;;;;;;5017784;28;20406;-28
2024/01/30 10:02:35;;;;;;;5.78;2.08;;;;;;;;;;5017306;28;20065;-29
2024/01/30 10:05:01;;;;;;;5.55;1.38;;;;;;;;;;5017790;28;20022;-29
2024/01/30 10:07:28;;;;;;;3.28;1.63;;;;;;;;;;5017436;28;20030;-27
2024/01/30 10:09:57;;;;;;;1.77;1.30;;;;;;;;;;5017480;28;20026;-32
2024/01/30 10:12:24;;;;;;;3.30;1.55;;;;;;;;;;5017341;28;20021;-29
2024/01/30 10:14:50;;;;;;;4.32;2.70;;;;;;;;;;5000001;28;20365;-30
2024/01/30 10:17:16;;;;;;;5.45;1.50;;;;;;;;;;4999976;28;20526;-30
2024/01/30 10:19:42;;;;;;;3.03;1.42;;;;;;;;;;5017135;28;20085;-30
2024/01/30 10:22:08;;;;;;;3.67;1.65;;;;;;;;;;4999873;28;20021;-29
2024/01/30 10:24:35;;;;;;;1.42;1.30;;;;;;;;;;5017112;28;20022;-30
2024/01/30 10:27:01;;;;;;;1.98;1.65;;;;;;;;;;4999729;28;20357;-29
2024/01/30 10:29:28;;;;;;;4.72;1.55;;;;;;;;;;5017103;28;20037;-30
2024/01/30 10:32:04;;;;;;;5.97;1.42;;;;;;;;;;5016648;28;20026;-31
2024/01/30 10:34:31;;;;;;;3.13;2.13;;;;;;;;;;5017433;28;20070;-30
2024/01/30 10:37:17;;;;;;;1.70;1.60;;;;;;;;;;5017247;28;20080;-29
2024/01/30 10:39:46;;;;;;;2.83;1.77;;;;;;;;;;5017085;28;20030;-29
2024/01/30 10:42:14;;;;;;;4.53;2.85;;;;;;;;;;5016643;28;20037;-29
2024/01/30 10:44:46;;;;;;;3.75;1.60;;;;;;;;;;5017005;28;20022;-29
2024/01/30 10:47:13;;;;;;;1.98;1.70;;;;;;;;;;5016669;28;20032;-30
2024/01/30 10:49:42;;;;;;;10.20;2.28;;;;;;;;;;5016988;28;20097;-29
2024/01/30 10:52:09;;;;;;;2.70;1.55;;;;;;;;;;4999446;28;20058;-29
2024/01/30 10:54:35;;;;;;;3.58;1.90;;;;;;;;;;5016936;28;20030;-29
2024/01/30 10:57:03;;;;;;;5.00;2.03;;;;;;;;;;4999347;28;20036;-30
2024/01/30 10:59:30;;;;;;;5.78;1.52;;;;;;;;;;4999166;28;20465;-30
2024/01/30 11:01:58;;;;;;;4.43;2.10;;;;;;;;;;5016400;28;20092;-30
2024/01/30 11:04:25;;;;;;;8.23;2.00;;;;;;;;;;5016185;28;20037;-30
2024/01/30 11:06:51;;;;;;;4.88;1.48;;;;;;;;;;5016390;28;20032;-29
2024/01/30 11:09:18;;;;;;;5.03;2.03;;;;;;;;;;5016603;28;20080;-30
2024/01/30 11:12:01;;;;;;;6.03;1.77;;;;;;;;;;5016246;28;20088;-30
2024/01/30 11:14:29;;;;;;;3.13;1.67;;;;;;;;;;5016352;28;20392;-29
2024/01/30 11:16:59;;;;;;;4.05;1.92;;;;;;;;;;5016034;28;20453;-29
2024/01/30 11:19:26;;;;;;;4.63;2.22;;;;;;;;;;5016062;28;20473;-29
2024/01/30 11:21:54;;;;;;;3.60;1.40;;;;;;;;;;5016347;28;20148;-26
2024/01/30 11:24:23;;;;;;;4.00;1.60;;;;;;;;;;5015918;28;20037;-27
2024/01/30 11:26:57;;;;;;;2.78;2.10;;;;;;;;;;4998702;28;20018;-26
2024/01/30 11:29:28;;;;;;;5.97;1.85;;;;;;;;;;5015868;28;20025;-26
2024/01/30 11:31:57;;;;;;;4.13;1.48;;;;;;;;;;5016140;28;20030;-32
2024/01/30 11:34:24;;;;;;;1.92;1.45;;;;;;;;;;4998533;28;20041;-29
2024/01/30 11:37:00;;;;;;;2.75;1.63;;;;;;;;;;4998592;28;20029;-29
2024/01/30 11:39:26;;;;;;;3.67;2.03;;;;;;;;;;5016166;28;20100;-29
2024/01/30 11:41:53;;;;;;;4.43;2.10;;;;;;;;;;5014735;28;20029;-29
2024/01/30 11:44:22;;;;;;;4.10;1.40;;;;;;;;;;5015863;28;20100;-29
2024/01/30 11:46:49;;;;;;;3.25;2.03;;;;;;;;;;4998392;28;20056;-29
2024/01/30 11:49:15;;;;;;;8.07;1.83;;;;;;;;;;5015886;28;20399;-29
2024/01/30 11:51:42;;;;;;;1.90;1.50;;;;;;;;;;5015993;28;20030;-29
2024/01/30 11:54:08;;;;;;;4.13;2.38;;;;;;;;;;5015601;28;20030;-29
2024/01/30 11:56:34;;;;;;;2.88;1.30;;;;;;;;;;5015491;28;20049;-29
2024/01/30 11:59:01;;;;;;;5.30;1.70;;;;;;;;;;4998042;28;20045;-29
2024/01/30 12:01:27;;;;;;;7.28;2.10;;;;;;;;;;5015259;28;20022;-29
2024/01/30 12:03:54;;;;;;;4.15;1.75;;;;;;;;;;5015179;28;20096;-30
2024/01/30 12:06:20;;;;;;;7.85;2.55;;;;;;;;;;4997991;28;20030;-29
2024/01/30 12:08:59;;;;;;;6.32;1.80;;;;;;;;;;4997837;28;20049;-29
2024/01/30 12:11:25;;;;;;;6.93;2.10;;;;;;;;;;5015378;28;20022;-31
2024/01/30 12:13:52;;;;;;;10.20;2.75;;;;;;;;;;5014968;28;20032;-29
2024/01/30 12:16:18;;;;;;;2.63;2.17;;;;;;;;;;5015184;28;20029;-30
2024/01/30 12:18:44;;;;;;;5.57;2.15;;;;;;;;;;4997654;28;20025;-29
2024/01/30 12:21:11;;;;;;;6.75;2.13;;;;;;;;;;5014978;28;20410;-29
2024/01/30 12:23:37;;;;;;;4.60;2.00;;;;;;;;;;5014945;28;20080;-29
2024/01/30 12:26:03;;;;;;;5.13;2.00;;;;;;;;;;4997688;28;20029;-29
2024/01/30 12:28:30;;;;;;;6.95;2.47;;;;;;;;;;5014979;28;20022;-29
2024/01/30 12:30:57;;;;;;;3.60;2.10;;;;;;;;;;5015450;28;20103;-29
2024/01/30 12:33:28;;;;;;;5.15;1.80;;;;;;;;;;5014852;28;20022;-29
2024/01/30 12:35:54;;;;;;;3.13;2.00;;;;;;;;;;5014843;28;20104;-29
2024/01/30 12:38:21;;;;;;;4.45;2.08;;;;;;;;;;5014870;28;20018;-30
2024/01/30 12:40:47;;;;;;;7.60;2.10;;;;;;;;;;5014550;28;20349;-29
2024/01/30 12:43:14;;;;;;;9.82;2.00;;;;;;;;;;5014638;28;20026;-29
2024/01/30 12:45:41;;;;;;;4.97;1.83;;;;;;;;;;5014535;28;20346;-29
2024/01/30 12:48:08;;;;;;;7.65;2.10;;;;;;;;;;5014628;28;20508;-30
2024/01/30 12:50:34;;;;;;;4.45;1.80;;;;;;;;;;5014663;28;20033;-29
2024/01/30 12:53:00;;;;;;;3.58;1.73;;;;;;;;;;5014324;28;20030;-29
2024/01/30 12:55:28;;;;;;;7.60;2.13;;;;;;;;;;5014536;28;20045;-29
2024/01/30 12:57:55;;;;;;;6.55;1.90;;;;;;;;;;5014765;28;20092;-29
2024/01/30 13:00:22;;;;;;;5.75;2.20;;;;;;;;;;4997331;28;20026;-33
2024/01/30 13:02:48;;;;;;;6.03;2.28;;;;;;;;;;4993835;28;20046;-29
2024/01/30 13:05:15;;;;;;;8.80;2.63;;;;;;;;;;4994837;28;20228;-29
2024/01/30 13:07:41;;;;;;;3.78;2.15;;;;;;;;;;4995013;28;20038;-29
2024/01/30 13:10:07;;;;;;;6.80;2.58;;;;;;;;;;4994023;28;20065;-29
2024/01/30 13:12:33;;;;;;;6.13;2.08;;;;;;;;;;4994087;28;20461;-29
2024/01/30 13:15:04;;;;;;;6.15;2.47;;;;;;;;;;4995345;28;20365;-30
2024/01/30 13:17:30;;;;;;;6.22;2.53;;;;;;;;;;4995113;28;20033;-29
2024/01/30 13:19:56;;;;;;;7.45;2.20;;;;;;;;;;4994933;28;20030;-29
2024/01/30 13:22:23;;;;;;;10.68;3.08;;;;;;;;;;4995214;28;20033;-29
2024/01/30 13:24:49;;;;;;;7.10;2.42;;;;;;;;;;4995222;28;20472;-29
2024/01/30 13:27:15;;;;;;;7.22;2.38;;;;;;;;;;4994955;28;20432;-29
2024/01/30 13:29:41;;;;;;;8.57;2.10;;;;;;;;;;4994867;28;20081;-29
2024/01/30 13:32:07;;;;;;;4.60;2.10;;;;;;;;;;4994910;28;20414;-29
2024/01/30 13:34:33;;;;;;;8.10;2.08;;;;;;;;;;4994198;28;20437;-29
2024/01/30 13:36:59;;;;;;;4.53;2.08;;;;;;;;;;4995134;28;20453;-28
2024/01/30 13:39:26;;;;;;;5.18;2.08;;;;;;;;;;4994678;28;20053;-34
2024/01/30 13:41:52;;;;;;;8.13;2.67;;;;;;;;;;4995385;28;20435;-27
2024/01/30 13:44:18;;;;;;;4.50;2.00;;;;;;;;;;4994808;28;20041;-27
2024/01/30 13:46:46;;;;;;;5.45;2.10;;;;;;;;;;4994751;28;20015;-28
2024/01/30 13:49:12;;;;;;;4.30;2.38;;;;;;;;;;4994946;28;20019;-27
2024/01/30 13:51:38;;;;;;;5.82;1.83;;;;;;;;;;4993622;28;20361;-27
2024/01/30 13:54:04;;;;;;;4.88;1.92;;;;;;;;;;4993509;28;20102;-27
2024/01/30 13:56:30;;;;;;;6.43;2.20;;;;;;;;;;4993624;28;20022;-26
2024/01/30 13:58:57;;;;;;;7.25;1.70;;;;;;;;;;4994373;28;20349;-27
2024/01/30 14:01:24;;;;;;;6.35;2.53;;;;;;;;;;4994483;28;20027;-28
2024/01/30 14:03:50;;;;;;;3.65;2.28;;;;;;;;;;5008510;28;20373;-27
2024/01/30 14:06:16;;;;;;;7.75;2.67;;;;;;;;;;5016539;28;20021;-27
2024/01/30 14:08:42;;;;;;;4.40;1.90;;;;;;;;;;5017617;28;20377;-27
2024/01/30 14:11:08;;;;;;;5.97;2.60;;;;;;;;;;5017906;28;20018;-27
2024/01/30 14:13:34;;;;;;;8.13;2.50;;;;;;;;;;5017578;28;20390;-27
2024/01/30 14:16:01;;;;;;;2.70;2.20;;;;;;;;;;5017879;28;20068;-26
2024/01/30 14:18:27;;;;;;;7.05;2.42;;;;;;;;;;5017557;28;20084;-27
2024/01/30 14:20:54;;;;;;;7.22;2.40;;;;;;;;;;5000139;28;20026;-27
2024/01/30 14:23:21;;;;;;;9.02;2.10;;;;;;;;;;5017417;28;20025;-27
2024/01/30 14:25:47;;;;;;;3.97;1.85;;;;;;;;;;5017780;28;20053;-27
2024/01/30 14:28:13;;;;;;;4.95;2.20;;;;;;;;;;5017490;28;20113;-27
2024/01/30 14:30:39;;;;;;;5.20;2.13;;;;;;;;;;5017318;28;20030;-26
2024/01/30 14:33:06;;;;;;;3.92;2.25;;;;;;;;;;5017494;28;20033;-26
2024/01/30 14:35:33;;;;;;;7.32;2.35;;;;;;;;;;5017463;28;20055;-27
2024/01/30 14:38:00;;;;;;;4.68;2.10;;;;;;;;;;4999962;28;20029;-27
2024/01/30 14:40:26;;;;;;;3.25;2.30;;;;;;;;;;4999849;28;20030;-27